Time,TemperatureF,DewpointF,PressureIn,WindDirection,WindDirectionDegrees,WindSpeedMPH,WindSpeedGustMPH,Humidity,HourlyPrecipIn,Conditions,Clouds,dailyrainin,SoftwareType,DateUTC
2013-01-27 01:00:00,40.0,37.0,-100.00,South,174,5.0,10.0,88,-99.99,,,-99.99,,2013-01-27 09:00:00,
2013-01-27 01:02:00,39.0,38.0,-100.00,SSW,199,2.0,8.0,96,-99.99,,,-99.99,,2013-01-27 09:02:00,
2013-01-27 01:11:00,39.0,38.0,-100.00,SSW,199,2.0,8.0,96,-99.99,,,-99.99,,2013-01-27 09:11:00,
2013-01-27 03:01:00,40.0,37.0,-100.00,South,182,3.0,7.0,88,-99.99,,,-99.99,,2013-01-27 11:01:00,
2013-01-27 03:11:00,40.0,37.0,-100.00,South,182,3.0,7.0,88,-99.99,,,-99.99,,2013-01-27 11:11:00,
2013-01-27 05:02:00,39.0,38.0,-100.00,South,171,1.0,7.0,96,-99.99,,,-99.99,,2013-01-27 13:02:00,
2013-01-27 05:11:00,39.0,38.0,-100.00,South,171,1.0,7.0,96,-99.99,,,-99.99,,2013-01-27 13:11:00,
2013-01-27 07:02:00,39.0,37.0,-100.00,SSE,168,6.0,13.0,92,-99.99,,,-99.99,,2013-01-27 15:02:00,
2013-01-27 07:11:00,39.0,37.0,-100.00,SSE,168,6.0,13.0,92,-99.99,,,-99.99,,2013-01-27 15:11:00,
2013-01-27 09:01:00,38.0,37.0,-100.00,SW,219,1.0,5.0,96,-99.99,,,-99.99,,2013-01-27 17:01:00,
2013-01-27 09:12:00,38.0,37.0,-100.00,SW,219,1.0,5.0,96,-99.99,,,-99.99,,2013-01-27 17:12:00,
2013-01-27 11:02:00,39.0,37.0,-100.00,WSW,244,2.0,8.0,92,-99.99,,,-99.99,,2013-01-27 19:02:00,
2013-01-27 11:11:00,39.0,37.0,-100.00,WSW,244,2.0,8.0,92,-99.99,,,-99.99,,2013-01-27 19:11:00,
2013-01-27 13:02:00,39.0,37.0,-100.00,SSW,192,2.0,7.0,92,-99.99,,,-99.99,,2013-01-27 21:02:00,
2013-01-27 13:12:00,39.0,37.0,-100.00,SSW,192,2.0,7.0,92,-99.99,,,-99.99,,2013-01-27 21:12:00,
2013-01-27 15:02:00,39.0,37.0,-100.00,South,179,3.0,7.0,92,-99.99,,,-99.99,,2013-01-27 23:02:00,
2013-01-27 15:11:00,39.0,37.0,-100.00,South,179,3.0,7.0,92,-99.99,,,-99.99,,2013-01-27 23:11:00,
2013-01-27 16:20:00,39.0,37.0,-100.00,South,179,2.0,6.0,92,-99.99,,,-99.99,,2013-01-28 00:20:00,
2013-01-27 17:01:00,39.0,37.0,-100.00,South,179,2.0,6.0,92,-99.99,,,-99.99,,2013-01-28 01:01:00,
2013-01-27 17:11:00,39.0,37.0,-100.00,South,179,2.0,6.0,92,-99.99,,,-99.99,,2013-01-28 01:11:00,
2013-01-27 19:02:00,38.0,37.0,-100.00,SSW,193,3.0,9.0,96,-99.99,,,-99.99,,2013-01-28 03:02:00,
2013-01-27 19:11:00,38.0,37.0,-100.00,SSW,193,3.0,9.0,96,-99.99,,,-99.99,,2013-01-28 03:11:00,
2013-01-27 21:03:00,39.0,38.0,-100.00,SSW,208,2.0,7.0,96,-99.99,,,-99.99,,2013-01-28 05:03:00,
2013-01-27 21:11:00,39.0,38.0,-100.00,SSW,208,2.0,7.0,96,-99.99,,,-99.99,,2013-01-28 05:11:00,
2013-01-27 23:02:00,39.0,38.0,-100.00,SSW,195,1.0,7.0,96,-99.99,,,-99.99,,2013-01-28 07:02:00,
2013-01-27 23:11:00,39.0,38.0,-100.00,SSW,195,1.0,7.0,96,-99.99,,,-99.99,,2013-01-28 07:11:00,